sensor_id;sensor_type;location;lat;lon;timestamp;temperature;humidity
9193;DHT22;4631;49.296;10.560;2023-01-08T00:01:15;3.40;99.90
9193;DHT22;4631;49.296;10.560;2023-01-08T00:03:44;3.40;99.90
9193;DHT22;4631;49.296;10.560;2023-01-08T00:06:11;3.30;99.90
9193;DHT22;4631;49.296;10.560;2023-01-08T00:08:39;3.30;99.90
9193;DHT22;4631;49.296;10.560;2023-01-08T00:11:06;3.20;99.90
9193;DHT22;4631;49.296;10.560;2023-01-08T00:13:32;3.20;99.90
9193;DHT22;4631;49.296;10.560;2023-01-08T00:16:01;3.20;99.90
9193;DHT22;4631;49.296;10.560;2023-01-08T00:18:28;3.20;99.90
9193;DHT22;4631;49.296;10.560;2023-01-08T00:20:56;3.20;99.90
9193;DHT22;4631;49.296;10.560;2023-01-08T00:23:23;3.00;99.90
9193;DHT22;4631;49.296;10.560;2023-01-08T00:25:49;3.00;99.90
9193;DHT22;4631;49.296;10.560;2023-01-08T00:28:16;3.00;99.90
9193;DHT22;4631;49.296;10.560;2023-01-08T00:30:45;3.00;99.90
9193;DHT22;4631;49.296;10.560;2023-01-08T00:33:12;2.90;99.90
9193;DHT22;4631;49.296;10.560;2023-01-08T00:35:39;2.90;99.90
9193;DHT22;4631;49.296;10.560;2023-01-08T00:38:07;2.90;99.90
9193;DHT22;4631;49.296;10.560;2023-01-08T00:40:34;2.80;99.90
9193;DHT22;4631;49.296;10.560;2023-01-08T00:43:01;2.80;99.90
9193;DHT22;4631;49.296;10.560;2023-01-08T00:45:27;2.80;99.90
9193;DHT22;4631;49.296;10.560;2023-01-08T00:47:57;2.80;99.90
9193;DHT22;4631;49.296;10.560;2023-01-08T00:50:24;2.70;99.90
9193;DHT22;4631;49.296;10.560;2023-01-08T00:52:51;2.70;99.90
9193;DHT22;4631;49.296;10.560;2023-01-08T00:55:19;2.60;99.90
9193;DHT22;4631;49.296;10.560;2023-01-08T00:57:45;2.60;99.90
9193;DHT22;4631;49.296;10.560;2023-01-08T01:00:13;2.60;99.90
9193;DHT22;4631;49.296;10.560;2023-01-08T01:02:40;2.60;99.90
9193;DHT22;4631;49.296;10.560;2023-01-08T01:05:07;2.60;99.90
9193;DHT22;4631;49.296;10.560;2023-01-08T01:07:35;2.60;99.90
9193;DHT22;4631;49.296;10.560;2023-01-08T01:10:01;2.60;99.90
9193;DHT22;4631;49.296;10.560;2023-01-08T01:12:29;2.60;99.90
9193;DHT22;4631;49.296;10.560;2023-01-08T01:14:56;2.60;99.90
9193;DHT22;4631;49.296;10.560;2023-01-08T01:17:23;2.50;99.90
9193;DHT22;4631;49.296;10.560;2023-01-08T01:19:49;2.50;99.90
9193;DHT22;4631;49.296;10.560;2023-01-08T01:22:16;2.50;99.90
9193;DHT22;4631;49.296;10.560;2023-01-08T01:24:42;2.50;99.90
9193;DHT22;4631;49.296;10.560;2023-01-08T01:27:09;2.40;99.90
9193;DHT22;4631;49.296;10.560;2023-01-08T01:29:37;2.40;99.90
9193;DHT22;4631;49.296;10.560;2023-01-08T01:32:04;2.40;99.90
9193;DHT22;4631;49.296;10.560;2023-01-08T01:34:31;2.40;99.90
9193;DHT22;4631;49.296;10.560;2023-01-08T01:36:58;2.40;99.90
9193;DHT22;4631;49.296;10.560;2023-01-08T01:39:24;2.50;99.90
9193;DHT22;4631;49.296;10.560;2023-01-08T01:41:51;2.40;99.90
9193;DHT22;4631;49.296;10.560;2023-01-08T01:47:10;2.40;99.90
9193;DHT22;4631;49.296;10.560;2023-01-08T01:49:38;2.30;99.90
9193;DHT22;4631;49.296;10.560;2023-01-08T01:52:06;2.30;99.90
9193;DHT22;4631;49.296;10.560;2023-01-08T01:54:33;2.30;99.90
9193;DHT22;4631;49.296;10.560;2023-01-08T01:57:01;2.20;99.90
9193;DHT22;4631;49.296;10.560;2023-01-08T01:59:28;2.10;99.90
9193;DHT22;4631;49.296;10.560;2023-01-08T02:01:55;2.10;99.90
9193;DHT22;4631;49.296;10.560;2023-01-08T02:04:23;2.10;99.90
9193;DHT22;4631;49.296;10.560;2023-01-08T02:06:51;2.10;99.90
9193;DHT22;4631;49.296;10.560;2023-01-08T02:09:22;2.00;99.90
9193;DHT22;4631;49.296;10.560;2023-01-08T02:11:54;2.10;99.90
9193;DHT22;4631;49.296;10.560;2023-01-08T02:14:39;2.00;99.90
9193;DHT22;4631;49.296;10.560;2023-01-08T02:17:08;2.10;99.90
9193;DHT22;4631;49.296;10.560;2023-01-08T02:19:39;2.00;99.90
9193;DHT22;4631;49.296;10.560;2023-01-08T02:22:12;2.10;99.90
9193;DHT22;4631;49.296;10.560;2023-01-08T02:24:45;2.10;99.90
9193;DHT22;4631;49.296;10.560;2023-01-08T02:27:18;2.10;99.90
9193;DHT22;4631;49.296;10.560;2023-01-08T02:29:45;2.10;99.90
9193;DHT22;4631;49.296;10.560;2023-01-08T02:32:13;2.00;99.90
9193;DHT22;4631;49.296;10.560;2023-01-08T02:34:39;2.10;99.90
9193;DHT22;4631;49.296;10.560;2023-01-08T02:37:07;2.10;99.90
9193;DHT22;4631;49.296;10.560;2023-01-08T02:39:40;2.00;99.90
9193;DHT22;4631;49.296;10.560;2023-01-08T02:42:10;2.00;99.90
9193;DHT22;4631;49.296;10.560;2023-01-08T02:44:43;1.90;99.90
9193;DHT22;4631;49.296;10.560;2023-01-08T02:47:15;2.00;99.90
9193;DHT22;4631;49.296;10.560;2023-01-08T02:49:43;1.90;99.90
9193;DHT22;4631;49.296;10.560;2023-01-08T02:52:11;2.00;99.90
9193;DHT22;4631;49.296;10.560;2023-01-08T02:54:39;1.90;99.90
9193;DHT22;4631;49.296;10.560;2023-01-08T02:57:08;2.00;99.90
9193;DHT22;4631;49.296;10.560;2023-01-08T02:59:36;2.00;99.90
9193;DHT22;4631;49.296;10.560;2023-01-08T03:02:04;1.90;99.90
9193;DHT22;4631;49.296;10.560;2023-01-08T03:04:33;2.00;99.90
9193;DHT22;4631;49.296;10.560;2023-01-08T03:07:02;1.90;99.90
9193;DHT22;4631;49.296;10.560;2023-01-08T03:09:28;1.90;99.90
9193;DHT22;4631;49.296;10.560;2023-01-08T03:11:56;1.90;99.90
9193;DHT22;4631;49.296;10.560;2023-01-08T03:14:27;1.90;99.90
9193;DHT22;4631;49.296;10.560;2023-01-08T03:16:54;1.90;99.90
9193;DHT22;4631;49.296;10.560;2023-01-08T03:19:26;1.90;99.90
9193;DHT22;4631;49.296;10.560;2023-01-08T03:21:54;1.90;99.90
9193;DHT22;4631;49.296;10.560;2023-01-08T03:24:22;1.90;99.90
9193;DHT22;4631;49.296;10.560;2023-01-08T03:26:51;1.90;99.90
9193;DHT22;4631;49.296;10.560;2023-01-08T03:29:19;2.00;99.90
9193;DHT22;4631;49.296;10.560;2023-01-08T03:31:48;2.00;99.90
9193;DHT22;4631;49.296;10.560;2023-01-08T03:34:15;2.00;99.90
9193;DHT22;4631;49.296;10.560;2023-01-08T03:36:47;2.10;99.90
9193;DHT22;4631;49.296;10.560;2023-01-08T03:39:15;2.00;99.90
9193;DHT22;4631;49.296;10.560;2023-01-08T03:41:42;2.00;99.90
9193;DHT22;4631;49.296;10.560;2023-01-08T03:44:09;2.00;99.90
9193;DHT22;4631;49.296;10.560;2023-01-08T03:46:36;2.00;99.90
9193;DHT22;4631;49.296;10.560;2023-01-08T03:49:04;2.00;99.90
9193;DHT22;4631;49.296;10.560;2023-01-08T03:51:37;2.10;99.90
9193;DHT22;4631;49.296;10.560;2023-01-08T03:54:05;2.00;99.90
9193;DHT22;4631;49.296;10.560;2023-01-08T03:56:34;2.10;99.90
9193;DHT22;4631;49.296;10.560;2023-01-08T03:59:01;2.00;99.90
9193;DHT22;4631;49.296;10.560;2023-01-08T04:01:27;2.10;99.90
9193;DHT22;4631;49.296;10.560;2023-01-08T04:03:54;2.10;99.90
9193;DHT22;4631;49.296;10.560;2023-01-08T04:06:21;2.10;99.90
9193;DHT22;4631;49.296;10.560;2023-01-08T04:08:47;2.10;99.90
9193;DHT22;4631;49.296;10.560;2023-01-08T04:11:15;2.10;99.90
9193;DHT22;4631;49.296;10.560;2023-01-08T04:13:42;2.20;99.90
9193;DHT22;4631;49.296;10.560;2023-01-08T04:16:08;2.20;99.90
9193;DHT22;4631;49.296;10.560;2023-01-08T04:18:35;2.20;99.90
9193;DHT22;4631;49.296;10.560;2023-01-08T04:21:02;2.20;99.90
9193;DHT22;4631;49.296;10.560;2023-01-08T04:23:28;2.20;99.90
9193;DHT22;4631;49.296;10.560;2023-01-08T04:25:55;2.30;99.90
9193;DHT22;4631;49.296;10.560;2023-01-08T04:28:23;2.30;99.90
9193;DHT22;4631;49.296;10.560;2023-01-08T04:30:51;2.30;99.90
9193;DHT22;4631;49.296;10.560;2023-01-08T04:33:17;2.30;99.90
9193;DHT22;4631;49.296;10.560;2023-01-08T04:35:44;2.30;99.90
9193;DHT22;4631;49.296;10.560;2023-01-08T04:38:10;2.30;99.90
9193;DHT22;4631;49.296;10.560;2023-01-08T04:40:37;2.30;99.90
9193;DHT22;4631;49.296;10.560;2023-01-08T04:43:04;2.30;99.90
9193;DHT22;4631;49.296;10.560;2023-01-08T04:45:32;2.30;99.90
9193;DHT22;4631;49.296;10.560;2023-01-08T04:47:58;2.30;99.90
9193;DHT22;4631;49.296;10.560;2023-01-08T04:50:25;2.30;99.90
9193;DHT22;4631;49.296;10.560;2023-01-08T04:52:57;2.30;99.90
9193;DHT22;4631;49.296;10.560;2023-01-08T04:55:23;2.40;99.90
9193;DHT22;4631;49.296;10.560;2023-01-08T04:57:50;2.40;99.90
9193;DHT22;4631;49.296;10.560;2023-01-08T05:00:17;2.40;99.90
9193;DHT22;4631;49.296;10.560;2023-01-08T05:02:45;2.40;99.90
9193;DHT22;4631;49.296;10.560;2023-01-08T05:05:11;2.40;99.90
9193;DHT22;4631;49.296;10.560;2023-01-08T05:07:38;2.40;99.90
9193;DHT22;4631;49.296;10.560;2023-01-08T05:10:05;2.40;99.90
9193;DHT22;4631;49.296;10.560;2023-01-08T05:12:32;2.50;99.90
9193;DHT22;4631;49.296;10.560;2023-01-08T05:14:59;2.50;99.90
9193;DHT22;4631;49.296;10.560;2023-01-08T05:17:25;2.50;99.90
9193;DHT22;4631;49.296;10.560;2023-01-08T05:19:53;2.50;99.90
9193;DHT22;4631;49.296;10.560;2023-01-08T05:22:20;2.50;99.90
9193;DHT22;4631;49.296;10.560;2023-01-08T05:24:46;2.50;99.90
9193;DHT22;4631;49.296;10.560;2023-01-08T05:27:13;2.50;99.90
9193;DHT22;4631;49.296;10.560;2023-01-08T05:29:40;2.60;99.90
9193;DHT22;4631;49.296;10.560;2023-01-08T05:32:07;2.50;99.90
9193;DHT22;4631;49.296;10.560;2023-01-08T05:34:39;2.50;99.90
9193;DHT22;4631;49.296;10.560;2023-01-08T05:37:07;2.50;99.90
9193;DHT22;4631;49.296;10.560;2023-01-08T05:39:33;2.50;99.90
9193;DHT22;4631;49.296;10.560;2023-01-08T05:42:00;2.50;99.90
9193;DHT22;4631;49.296;10.560;2023-01-08T05:44:27;2.50;99.90
9193;DHT22;4631;49.296;10.560;2023-01-08T05:46:53;2.60;99.90
9193;DHT22;4631;49.296;10.560;2023-01-08T05:49:20;2.60;99.90
9193;DHT22;4631;49.296;10.560;2023-01-08T05:51:48;2.60;99.90
9193;DHT22;4631;49.296;10.560;2023-01-08T05:54:16;2.60;99.90
9193;DHT22;4631;49.296;10.560;2023-01-08T05:56:42;2.60;99.90
9193;DHT22;4631;49.296;10.560;2023-01-08T05:59:09;2.70;99.90
9193;DHT22;4631;49.296;10.560;2023-01-08T06:01:38;2.70;99.90
9193;DHT22;4631;49.296;10.560;2023-01-08T06:04:05;2.70;99.90
9193;DHT22;4631;49.296;10.560;2023-01-08T06:06:32;2.80;99.90
9193;DHT22;4631;49.296;10.560;2023-01-08T06:08:58;2.80;99.90
9193;DHT22;4631;49.296;10.560;2023-01-08T06:11:28;2.80;99.90
9193;DHT22;4631;49.296;10.560;2023-01-08T06:13:55;2.90;99.90
9193;DHT22;4631;49.296;10.560;2023-01-08T06:16:21;2.90;99.90
9193;DHT22;4631;49.296;10.560;2023-01-08T06:18:48;3.00;99.90
9193;DHT22;4631;49.296;10.560;2023-01-08T06:21:15;3.00;99.90
9193;DHT22;4631;49.296;10.560;2023-01-08T06:23:41;3.10;99.90
9193;DHT22;4631;49.296;10.560;2023-01-08T06:26:08;3.10;99.90
9193;DHT22;4631;49.296;10.560;2023-01-08T06:28:36;3.20;99.90
9193;DHT22;4631;49.296;10.560;2023-01-08T06:31:03;3.20;99.90
9193;DHT22;4631;49.296;10.560;2023-01-08T06:33:30;3.20;99.90
9193;DHT22;4631;49.296;10.560;2023-01-08T06:35:58;3.30;99.90
9193;DHT22;4631;49.296;10.560;2023-01-08T06:38:25;3.30;99.90
9193;DHT22;4631;49.296;10.560;2023-01-08T06:40:51;3.30;99.90
9193;DHT22;4631;49.296;10.560;2023-01-08T06:43:18;3.30;99.90
9193;DHT22;4631;49.296;10.560;2023-01-08T06:45:52;3.40;99.90
9193;DHT22;4631;49.296;10.560;2023-01-08T06:48:25;3.40;99.90
9193;DHT22;4631;49.296;10.560;2023-01-08T06:50:52;3.40;99.90
9193;DHT22;4631;49.296;10.560;2023-01-08T06:53:19;3.40;99.90
9193;DHT22;4631;49.296;10.560;2023-01-08T06:55:46;3.40;99.90
9193;DHT22;4631;49.296;10.560;2023-01-08T06:58:12;3.40;99.90
9193;DHT22;4631;49.296;10.560;2023-01-08T07:00:39;3.50;99.90
9193;DHT22;4631;49.296;10.560;2023-01-08T07:03:10;3.50;99.90
9193;DHT22;4631;49.296;10.560;2023-01-08T07:05:37;3.50;99.90
9193;DHT22;4631;49.296;10.560;2023-01-08T07:08:03;3.50;99.90
9193;DHT22;4631;49.296;10.560;2023-01-08T07:10:30;3.60;99.90
9193;DHT22;4631;49.296;10.560;2023-01-08T07:12:57;3.60;99.90
9193;DHT22;4631;49.296;10.560;2023-01-08T07:15:24;3.60;99.90
9193;DHT22;4631;49.296;10.560;2023-01-08T07:17:50;3.60;99.90
9193;DHT22;4631;49.296;10.560;2023-01-08T07:20:18;3.60;99.90
9193;DHT22;4631;49.296;10.560;2023-01-08T07:22:45;3.60;99.90
9193;DHT22;4631;49.296;10.560;2023-01-08T07:25:11;3.60;99.90
9193;DHT22;4631;49.296;10.560;2023-01-08T07:27:38;3.60;99.90
9193;DHT22;4631;49.296;10.560;2023-01-08T07:30:05;3.60;99.90
9193;DHT22;4631;49.296;10.560;2023-01-08T07:32:32;3.50;99.90
9193;DHT22;4631;49.296;10.560;2023-01-08T07:34:59;3.60;99.90
9193;DHT22;4631;49.296;10.560;2023-01-08T07:37:27;3.60;99.90
9193;DHT22;4631;49.296;10.560;2023-01-08T07:39:53;3.60;99.90
9193;DHT22;4631;49.296;10.560;2023-01-08T07:42:20;3.60;99.90
9193;DHT22;4631;49.296;10.560;2023-01-08T07:44:47;3.60;99.90
9193;DHT22;4631;49.296;10.560;2023-01-08T07:47:13;3.60;99.90
9193;DHT22;4631;49.296;10.560;2023-01-08T07:49:40;3.60;99.90
9193;DHT22;4631;49.296;10.560;2023-01-08T07:52:06;3.70;99.90
9193;DHT22;4631;49.296;10.560;2023-01-08T07:54:34;3.70;99.90
9193;DHT22;4631;49.296;10.560;2023-01-08T07:57:01;3.80;99.90
9193;DHT22;4631;49.296;10.560;2023-01-08T07:59:28;3.80;99.90
9193;DHT22;4631;49.296;10.560;2023-01-08T08:01:54;3.80;99.90
9193;DHT22;4631;49.296;10.560;2023-01-08T08:04:21;3.80;99.90
9193;DHT22;4631;49.296;10.560;2023-01-08T08:06:48;3.80;99.90
9193;DHT22;4631;49.296;10.560;2023-01-08T08:09:15;3.80;99.90
9193;DHT22;4631;49.296;10.560;2023-01-08T08:11:43;3.80;99.90
9193;DHT22;4631;49.296;10.560;2023-01-08T08:14:09;3.90;99.90
9193;DHT22;4631;49.296;10.560;2023-01-08T08:16:36;4.00;99.90
9193;DHT22;4631;49.296;10.560;2023-01-08T08:19:03;4.10;99.90
9193;DHT22;4631;49.296;10.560;2023-01-08T08:21:30;4.20;99.90
9193;DHT22;4631;49.296;10.560;2023-01-08T08:23:56;4.30;99.90
9193;DHT22;4631;49.296;10.560;2023-01-08T08:26:23;4.40;99.90
9193;DHT22;4631;49.296;10.560;2023-01-08T08:28:51;4.50;99.90
9193;DHT22;4631;49.296;10.560;2023-01-08T08:31:17;4.60;99.90
9193;DHT22;4631;49.296;10.560;2023-01-08T08:33:44;4.60;99.90
9193;DHT22;4631;49.296;10.560;2023-01-08T08:36:11;4.60;99.90
9193;DHT22;4631;49.296;10.560;2023-01-08T08:38:38;4.70;99.90
9193;DHT22;4631;49.296;10.560;2023-01-08T08:41:05;4.70;99.90
9193;DHT22;4631;49.296;10.560;2023-01-08T08:43:32;4.80;99.90
9193;DHT22;4631;49.296;10.560;2023-01-08T08:46:00;4.90;99.90
9193;DHT22;4631;49.296;10.560;2023-01-08T08:48:27;5.00;99.90
9193;DHT22;4631;49.296;10.560;2023-01-08T08:50:53;5.00;99.90
9193;DHT22;4631;49.296;10.560;2023-01-08T08:53:20;5.10;99.90
9193;DHT22;4631;49.296;10.560;2023-01-08T08:55:46;5.20;99.90
9193;DHT22;4631;49.296;10.560;2023-01-08T08:58:13;5.20;99.90
9193;DHT22;4631;49.296;10.560;2023-01-08T09:00:40;5.20;99.90
9193;DHT22;4631;49.296;10.560;2023-01-08T09:03:09;5.30;99.90
9193;DHT22;4631;49.296;10.560;2023-01-08T09:05:37;5.40;99.90
9193;DHT22;4631;49.296;10.560;2023-01-08T09:08:04;5.40;99.90
9193;DHT22;4631;49.296;10.560;2023-01-08T09:10:30;5.50;99.90
9193;DHT22;4631;49.296;10.560;2023-01-08T09:12:57;5.50;99.90
9193;DHT22;4631;49.296;10.560;2023-01-08T09:15:24;5.60;99.90
9193;DHT22;4631;49.296;10.560;2023-01-08T09:17:53;5.60;99.90
9193;DHT22;4631;49.296;10.560;2023-01-08T09:20:22;5.70;99.90
9193;DHT22;4631;49.296;10.560;2023-01-08T09:22:49;5.70;99.90
9193;DHT22;4631;49.296;10.560;2023-01-08T09:25:16;5.70;99.90
9193;DHT22;4631;49.296;10.560;2023-01-08T09:27:42;5.70;99.90
9193;DHT22;4631;49.296;10.560;2023-01-08T09:30:09;5.80;99.90
9193;DHT22;4631;49.296;10.560;2023-01-08T09:32:36;5.80;99.90
9193;DHT22;4631;49.296;10.560;2023-01-08T09:35:03;5.80;99.90
9193;DHT22;4631;49.296;10.560;2023-01-08T09:37:31;5.80;99.90
9193;DHT22;4631;49.296;10.560;2023-01-08T09:39:58;5.80;99.90
9193;DHT22;4631;49.296;10.560;2023-01-08T09:42:24;5.70;99.90
9193;DHT22;4631;49.296;10.560;2023-01-08T09:44:53;5.70;99.90
9193;DHT22;4631;49.296;10.560;2023-01-08T09:47:22;5.70;99.90
9193;DHT22;4631;49.296;10.560;2023-01-08T09:49:50;5.70;99.90
9193;DHT22;4631;49.296;10.560;2023-01-08T09:52:17;5.60;99.90
9193;DHT22;4631;49.296;10.560;2023-01-08T09:54:45;5.70;99.90
9193;DHT22;4631;49.296;10.560;2023-01-08T09:57:12;5.70;99.90
9193;DHT22;4631;49.296;10.560;2023-01-08T09:59:41;5.70;99.90
9193;DHT22;4631;49.296;10.560;2023-01-08T10:02:11;5.70;99.90
9193;DHT22;4631;49.296;10.560;2023-01-08T10:04:38;5.70;99.90
9193;DHT22;4631;49.296;10.560;2023-01-08T10:07:07;5.70;99.90
9193;DHT22;4631;49.296;10.560;2023-01-08T10:09:36;5.70;99.90
9193;DHT22;4631;49.296;10.560;2023-01-08T10:12:04;5.70;99.90
9193;DHT22;4631;49.296;10.560;2023-01-08T10:14:32;5.70;99.90
9193;DHT22;4631;49.296;10.560;2023-01-08T10:17:01;5.70;99.90
9193;DHT22;4631;49.296;10.560;2023-01-08T10:19:28;5.70;99.90
9193;DHT22;4631;49.296;10.560;2023-01-08T10:21:55;5.80;99.90
9193;DHT22;4631;49.296;10.560;2023-01-08T10:24:32;5.70;99.90
9193;DHT22;4631;49.296;10.560;2023-01-08T10:27:06;5.70;99.90
9193;DHT22;4631;49.296;10.560;2023-01-08T10:29:34;5.70;99.90
9193;DHT22;4631;49.296;10.560;2023-01-08T10:32:06;5.70;99.90
9193;DHT22;4631;49.296;10.560;2023-01-08T10:34:38;5.70;99.90
9193;DHT22;4631;49.296;10.560;2023-01-08T10:37:12;5.80;99.90
9193;DHT22;4631;49.296;10.560;2023-01-08T10:39:43;5.80;99.90
9193;DHT22;4631;49.296;10.560;2023-01-08T10:44:45;5.90;99.90
9193;DHT22;4631;49.296;10.560;2023-01-08T10:47:15;5.90;99.90
9193;DHT22;4631;49.296;10.560;2023-01-08T10:49:42;6.00;99.90
9193;DHT22;4631;49.296;10.560;2023-01-08T10:52:20;6.00;99.90
9193;DHT22;4631;49.296;10.560;2023-01-08T10:54:48;6.00;99.90
9193;DHT22;4631;49.296;10.560;2023-01-08T10:57:19;6.10;99.90
9193;DHT22;4631;49.296;10.560;2023-01-08T10:59:47;6.10;99.90
9193;DHT22;4631;49.296;10.560;2023-01-08T11:02:17;6.20;99.90
9193;DHT22;4631;49.296;10.560;2023-01-08T11:04:46;6.20;99.90
9193;DHT22;4631;49.296;10.560;2023-01-08T11:07:17;6.10;99.90
9193;DHT22;4631;49.296;10.560;2023-01-08T11:09:45;6.20;99.90
9193;DHT22;4631;49.296;10.560;2023-01-08T11:12:28;6.10;99.90
9193;DHT22;4631;49.296;10.560;2023-01-08T11:14:57;6.20;99.90
9193;DHT22;4631;49.296;10.560;2023-01-08T11:17:25;6.20;99.90
9193;DHT22;4631;49.296;10.560;2023-01-08T11:20:05;6.20;99.90
9193;DHT22;4631;49.296;10.560;2023-01-08T11:22:32;6.20;99.90
9193;DHT22;4631;49.296;10.560;2023-01-08T11:24:58;6.20;99.90
9193;DHT22;4631;49.296;10.560;2023-01-08T11:27:26;6.20;99.90
9193;DHT22;4631;49.296;10.560;2023-01-08T11:29:56;6.20;99.90
9193;DHT22;4631;49.296;10.560;2023-01-08T11:32:36;6.20;99.90
9193;DHT22;4631;49.296;10.560;2023-01-08T11:35:09;6.20;99.90
9193;DHT22;4631;49.296;10.560;2023-01-08T11:37:38;6.20;99.90
9193;DHT22;4631;49.296;10.560;2023-01-08T11:40:10;6.20;99.90
9193;DHT22;4631;49.296;10.560;2023-01-08T11:42:46;6.20;99.90
9193;DHT22;4631;49.296;10.560;2023-01-08T11:45:20;6.20;99.90
9193;DHT22;4631;49.296;10.560;2023-01-08T11:47:55;6.20;99.90
9193;DHT22;4631;49.296;10.560;2023-01-08T11:50:26;6.20;99.90
9193;DHT22;4631;49.296;10.560;2023-01-08T11:52:58;6.20;99.90
9193;DHT22;4631;49.296;10.560;2023-01-08T11:55:31;6.20;99.90
9193;DHT22;4631;49.296;10.560;2023-01-08T11:58:12;6.20;99.90
9193;DHT22;4631;49.296;10.560;2023-01-08T12:00:53;6.20;99.90
9193;DHT22;4631;49.296;10.560;2023-01-08T12:03:28;6.30;99.90
9193;DHT22;4631;49.296;10.560;2023-01-08T12:05:55;6.30;99.90
9193;DHT22;4631;49.296;10.560;2023-01-08T12:08:27;6.30;99.90
9193;DHT22;4631;49.296;10.560;2023-01-08T12:10:57;6.30;99.90
9193;DHT22;4631;49.296;10.560;2023-01-08T12:16:14;6.40;99.90
9193;DHT22;4631;49.296;10.560;2023-01-08T12:18:53;6.40;99.90
9193;DHT22;4631;49.296;10.560;2023-01-08T12:21:25;6.40;99.90
9193;DHT22;4631;49.296;10.560;2023-01-08T12:24:00;6.40;99.90
9193;DHT22;4631;49.296;10.560;2023-01-08T12:26:31;6.50;99.90
9193;DHT22;4631;49.296;10.560;2023-01-08T12:29:09;6.50;99.90
9193;DHT22;4631;49.296;10.560;2023-01-08T12:31:44;6.50;99.90
9193;DHT22;4631;49.296;10.560;2023-01-08T12:34:17;6.60;99.90
9193;DHT22;4631;49.296;10.560;2023-01-08T12:36:47;6.70;99.90
9193;DHT22;4631;49.296;10.560;2023-01-08T12:39:15;6.70;99.90
9193;DHT22;4631;49.296;10.560;2023-01-08T12:41:46;6.70;99.90
9193;DHT22;4631;49.296;10.560;2023-01-08T12:44:15;6.80;99.90
9193;DHT22;4631;49.296;10.560;2023-01-08T12:46:44;6.80;99.90
9193;DHT22;4631;49.296;10.560;2023-01-08T12:49:12;6.80;99.90
9193;DHT22;4631;49.296;10.560;2023-01-08T12:51:47;6.90;99.90
9193;DHT22;4631;49.296;10.560;2023-01-08T12:54:16;6.90;99.90
9193;DHT22;4631;49.296;10.560;2023-01-08T12:56:49;6.90;99.90
9193;DHT22;4631;49.296;10.560;2023-01-08T12:59:25;7.00;99.90
9193;DHT22;4631;49.296;10.560;2023-01-08T13:01:56;7.00;99.90
9193;DHT22;4631;49.296;10.560;2023-01-08T13:04:23;7.10;99.90
9193;DHT22;4631;49.296;10.560;2023-01-08T13:06:53;7.10;99.90
9193;DHT22;4631;49.296;10.560;2023-01-08T13:09:23;7.20;99.90
9193;DHT22;4631;49.296;10.560;2023-01-08T13:11:52;7.20;99.90
9193;DHT22;4631;49.296;10.560;2023-01-08T13:14:19;7.20;99.90
9193;DHT22;4631;49.296;10.560;2023-01-08T13:16:46;7.20;99.90
9193;DHT22;4631;49.296;10.560;2023-01-08T13:19:25;7.20;99.90
9193;DHT22;4631;49.296;10.560;2023-01-08T13:21:53;7.20;99.90
9193;DHT22;4631;49.296;10.560;2023-01-08T13:24:24;7.30;99.90
9193;DHT22;4631;49.296;10.560;2023-01-08T13:26:53;7.30;99.90
9193;DHT22;4631;49.296;10.560;2023-01-08T13:29:25;7.30;99.90
9193;DHT22;4631;49.296;10.560;2023-01-08T13:31:52;7.30;99.90
9193;DHT22;4631;49.296;10.560;2023-01-08T13:34:20;7.30;99.90
9193;DHT22;4631;49.296;10.560;2023-01-08T13:36:55;7.40;99.90
9193;DHT22;4631;49.296;10.560;2023-01-08T13:39:23;7.40;99.90
9193;DHT22;4631;49.296;10.560;2023-01-08T13:41:56;7.40;99.90
9193;DHT22;4631;49.296;10.560;2023-01-08T13:44:25;7.40;99.90
9193;DHT22;4631;49.296;10.560;2023-01-08T13:46:52;7.40;99.90
9193;DHT22;4631;49.296;10.560;2023-01-08T13:49:22;7.40;99.90
9193;DHT22;4631;49.296;10.560;2023-01-08T13:51:51;7.50;99.90
9193;DHT22;4631;49.296;10.560;2023-01-08T13:54:20;7.50;99.90
9193;DHT22;4631;49.296;10.560;2023-01-08T13:56:50;7.50;99.90
9193;DHT22;4631;49.296;10.560;2023-01-08T13:59:19;7.50;99.90
9193;DHT22;4631;49.296;10.560;2023-01-08T14:01:53;7.60;99.90
9193;DHT22;4631;49.296;10.560;2023-01-08T14:04:20;7.50;99.90
9193;DHT22;4631;49.296;10.560;2023-01-08T14:06:47;7.50;99.90
9193;DHT22;4631;49.296;10.560;2023-01-08T14:09:17;7.60;99.90
9193;DHT22;4631;49.296;10.560;2023-01-08T14:11:47;7.60;99.90
9193;DHT22;4631;49.296;10.560;2023-01-08T14:14:16;7.60;99.90
9193;DHT22;4631;49.296;10.560;2023-01-08T14:16:43;7.60;99.90
9193;DHT22;4631;49.296;10.560;2023-01-08T14:19:17;7.60;99.90
9193;DHT22;4631;49.296;10.560;2023-01-08T14:21:45;7.50;99.90
9193;DHT22;4631;49.296;10.560;2023-01-08T14:24:12;7.60;99.90
9193;DHT22;4631;49.296;10.560;2023-01-08T14:26:40;7.50;99.90
9193;DHT22;4631;49.296;10.560;2023-01-08T14:29:12;7.60;99.90
9193;DHT22;4631;49.296;10.560;2023-01-08T14:31:44;7.50;99.90
9193;DHT22;4631;49.296;10.560;2023-01-08T14:34:10;7.50;99.90
9193;DHT22;4631;49.296;10.560;2023-01-08T14:36:38;7.50;99.90
9193;DHT22;4631;49.296;10.560;2023-01-08T14:39:08;7.50;99.90
9193;DHT22;4631;49.296;10.560;2023-01-08T14:41:36;7.50;99.90
9193;DHT22;4631;49.296;10.560;2023-01-08T14:44:24;7.50;99.90
9193;DHT22;4631;49.296;10.560;2023-01-08T14:46:51;7.40;99.90
9193;DHT22;4631;49.296;10.560;2023-01-08T14:49:19;7.40;99.90
9193;DHT22;4631;49.296;10.560;2023-01-08T14:51:46;7.40;99.90
9193;DHT22;4631;49.296;10.560;2023-01-08T14:54:13;7.30;99.90
9193;DHT22;4631;49.296;10.560;2023-01-08T14:56:43;7.30;99.90
9193;DHT22;4631;49.296;10.560;2023-01-08T14:59:14;7.30;99.90
9193;DHT22;4631;49.296;10.560;2023-01-08T15:01:43;7.30;99.90
9193;DHT22;4631;49.296;10.560;2023-01-08T15:04:16;7.30;99.90
9193;DHT22;4631;49.296;10.560;2023-01-08T15:06:44;7.30;99.90
9193;DHT22;4631;49.296;10.560;2023-01-08T15:09:18;7.20;99.90
9193;DHT22;4631;49.296;10.560;2023-01-08T15:11:47;7.20;99.90
9193;DHT22;4631;49.296;10.560;2023-01-08T15:14:14;7.20;99.90
9193;DHT22;4631;49.296;10.560;2023-01-08T15:16:41;7.20;99.90
9193;DHT22;4631;49.296;10.560;2023-01-08T15:19:10;7.10;99.90
9193;DHT22;4631;49.296;10.560;2023-01-08T15:21:38;7.10;99.90
9193;DHT22;4631;49.296;10.560;2023-01-08T15:24:14;7.10;99.90
9193;DHT22;4631;49.296;10.560;2023-01-08T15:26:46;7.00;99.90
9193;DHT22;4631;49.296;10.560;2023-01-08T15:29:14;7.00;99.90
9193;DHT22;4631;49.296;10.560;2023-01-08T15:31:44;6.90;99.90
9193;DHT22;4631;49.296;10.560;2023-01-08T15:34:12;6.80;99.90
9193;DHT22;4631;49.296;10.560;2023-01-08T15:36:39;6.80;99.90
9193;DHT22;4631;49.296;10.560;2023-01-08T15:39:06;6.80;99.90
9193;DHT22;4631;49.296;10.560;2023-01-08T15:41:33;6.80;99.90
9193;DHT22;4631;49.296;10.560;2023-01-08T15:44:17;6.70;99.90
9193;DHT22;4631;49.296;10.560;2023-01-08T15:46:44;6.70;99.90
9193;DHT22;4631;49.296;10.560;2023-01-08T15:49:10;6.60;99.90
9193;DHT22;4631;49.296;10.560;2023-01-08T15:51:39;6.60;99.90
9193;DHT22;4631;49.296;10.560;2023-01-08T15:54:07;6.50;99.90
9193;DHT22;4631;49.296;10.560;2023-01-08T15:56:37;6.50;99.90
9193;DHT22;4631;49.296;10.560;2023-01-08T15:59:04;6.50;99.90
9193;DHT22;4631;49.296;10.560;2023-01-08T16:01:31;6.40;99.90
9193;DHT22;4631;49.296;10.560;2023-01-08T16:03:57;6.40;99.90
9193;DHT22;4631;49.296;10.560;2023-01-08T16:06:24;6.40;99.90
9193;DHT22;4631;49.296;10.560;2023-01-08T16:08:52;6.40;99.90
9193;DHT22;4631;49.296;10.560;2023-01-08T16:11:22;6.40;99.90
9193;DHT22;4631;49.296;10.560;2023-01-08T16:13:48;6.30;99.90
9193;DHT22;4631;49.296;10.560;2023-01-08T16:16:15;6.30;99.90
9193;DHT22;4631;49.296;10.560;2023-01-08T16:18:48;6.20;99.90